sensor_id;sensor_type;location;lat;lon;timestamp;temperature;humidity
2749;DHT22;1382;52.142;11.618;2022-11-18T00:01:40;9.10;57.40
2749;DHT22;1382;52.142;11.618;2022-11-18T00:04:08;9.10;57.30
2749;DHT22;1382;52.142;11.618;2022-11-18T00:06:35;9.10;57.20
2749;DHT22;1382;52.142;11.618;2022-11-18T00:09:02;9.10;57.20
2749;DHT22;1382;52.142;11.618;2022-11-18T00:11:29;9.10;57.20
2749;DHT22;1382;52.142;11.618;2022-11-18T00:13:56;9.10;57.10
2749;DHT22;1382;52.142;11.618;2022-11-18T00:16:23;9.10;57.20
2749;DHT22;1382;52.142;11.618;2022-11-18T00:18:50;9.10;57.10
2749;DHT22;1382;52.142;11.618;2022-11-18T00:21:18;9.10;57.20
2749;DHT22;1382;52.142;11.618;2022-11-18T00:23:47;9.10;57.20
2749;DHT22;1382;52.142;11.618;2022-11-18T00:26:14;9.10;57.80
2749;DHT22;1382;52.142;11.618;2022-11-18T00:28:41;9.20;57.10
2749;DHT22;1382;52.142;11.618;2022-11-18T00:31:10;9.10;57.10
2749;DHT22;1382;52.142;11.618;2022-11-18T00:33:37;9.10;57.00
2749;DHT22;1382;52.142;11.618;2022-11-18T00:36:06;9.10;57.10
2749;DHT22;1382;52.142;11.618;2022-11-18T00:38:35;9.10;57.10
2749;DHT22;1382;52.142;11.618;2022-11-18T00:41:03;9.00;57.00
2749;DHT22;1382;52.142;11.618;2022-11-18T00:43:31;9.00;57.00
2749;DHT22;1382;52.142;11.618;2022-11-18T00:45:58;9.20;57.10
2749;DHT22;1382;52.142;11.618;2022-11-18T00:48:25;9.00;57.00
2749;DHT22;1382;52.142;11.618;2022-11-18T00:50:54;8.80;57.00
2749;DHT22;1382;52.142;11.618;2022-11-18T00:53:23;9.00;57.20
2749;DHT22;1382;52.142;11.618;2022-11-18T00:55:51;9.00;57.10
2749;DHT22;1382;52.142;11.618;2022-11-18T00:58:18;9.00;57.00
2749;DHT22;1382;52.142;11.618;2022-11-18T01:00:46;9.00;56.90
2749;DHT22;1382;52.142;11.618;2022-11-18T01:03:15;9.00;56.90
2749;DHT22;1382;52.142;11.618;2022-11-18T01:05:42;9.00;56.90
2749;DHT22;1382;52.142;11.618;2022-11-18T01:08:10;9.00;57.00
2749;DHT22;1382;52.142;11.618;2022-11-18T01:10:38;9.00;57.00
2749;DHT22;1382;52.142;11.618;2022-11-18T01:13:11;9.00;56.90
2749;DHT22;1382;52.142;11.618;2022-11-18T01:15:38;9.00;56.90
2749;DHT22;1382;52.142;11.618;2022-11-18T01:18:05;9.00;56.90
2749;DHT22;1382;52.142;11.618;2022-11-18T01:20:32;9.00;56.90
2749;DHT22;1382;52.142;11.618;2022-11-18T01:22:59;8.90;56.90
2749;DHT22;1382;52.142;11.618;2022-11-18T01:25:26;9.00;56.90
2749;DHT22;1382;52.142;11.618;2022-11-18T01:27:54;8.90;56.90
2749;DHT22;1382;52.142;11.618;2022-11-18T01:30:22;8.90;56.80
2749;DHT22;1382;52.142;11.618;2022-11-18T01:32:49;8.90;56.80
2749;DHT22;1382;52.142;11.618;2022-11-18T01:35:16;8.90;57.20
2749;DHT22;1382;52.142;11.618;2022-11-18T01:37:42;8.90;56.90
2749;DHT22;1382;52.142;11.618;2022-11-18T01:40:10;8.90;56.80
2749;DHT22;1382;52.142;11.618;2022-11-18T01:42:37;8.80;56.90
2749;DHT22;1382;52.142;11.618;2022-11-18T01:45:14;8.80;57.00
2749;DHT22;1382;52.142;11.618;2022-11-18T01:47:48;8.80;57.10
2749;DHT22;1382;52.142;11.618;2022-11-18T01:50:18;8.80;57.00
2749;DHT22;1382;52.142;11.618;2022-11-18T01:52:46;8.80;56.90
2749;DHT22;1382;52.142;11.618;2022-11-18T01:55:20;8.80;57.00
2749;DHT22;1382;52.142;11.618;2022-11-18T01:57:50;8.80;56.90
2749;DHT22;1382;52.142;11.618;2022-11-18T02:00:18;8.80;56.80
2749;DHT22;1382;52.142;11.618;2022-11-18T02:02:47;8.80;56.80
2749;DHT22;1382;52.142;11.618;2022-11-18T02:05:15;8.70;56.90
2749;DHT22;1382;52.142;11.618;2022-11-18T02:07:42;8.70;56.90
2749;DHT22;1382;52.142;11.618;2022-11-18T02:10:17;8.70;56.90
2749;DHT22;1382;52.142;11.618;2022-11-18T02:12:44;8.70;56.90
2749;DHT22;1382;52.142;11.618;2022-11-18T02:15:11;8.70;56.80
2749;DHT22;1382;52.142;11.618;2022-11-18T02:17:46;8.70;56.90
2749;DHT22;1382;52.142;11.618;2022-11-18T02:20:31;8.70;57.50
2749;DHT22;1382;52.142;11.618;2022-11-18T02:23:20;8.60;56.90
2749;DHT22;1382;52.142;11.618;2022-11-18T02:26:22;8.60;57.00
2749;DHT22;1382;52.142;11.618;2022-11-18T02:29:06;8.60;56.90
2749;DHT22;1382;52.142;11.618;2022-11-18T02:31:40;8.60;57.00
2749;DHT22;1382;52.142;11.618;2022-11-18T02:34:15;8.60;57.00
2749;DHT22;1382;52.142;11.618;2022-11-18T02:36:49;8.60;56.90
2749;DHT22;1382;52.142;11.618;2022-11-18T02:39:21;8.60;56.90
2749;DHT22;1382;52.142;11.618;2022-11-18T02:41:50;8.60;56.80
2749;DHT22;1382;52.142;11.618;2022-11-18T02:44:21;8.60;56.80
2749;DHT22;1382;52.142;11.618;2022-11-18T02:46:54;8.70;56.80
2749;DHT22;1382;52.142;11.618;2022-11-18T02:49:26;8.60;56.60
2749;DHT22;1382;52.142;11.618;2022-11-18T02:51:55;8.70;56.70
2749;DHT22;1382;52.142;11.618;2022-11-18T02:54:24;8.60;56.60
2749;DHT22;1382;52.142;11.618;2022-11-18T02:56:53;8.60;56.50
2749;DHT22;1382;52.142;11.618;2022-11-18T02:59:22;8.60;56.60
2749;DHT22;1382;52.142;11.618;2022-11-18T03:01:48;8.50;56.60
2749;DHT22;1382;52.142;11.618;2022-11-18T03:04:16;8.50;56.80
2749;DHT22;1382;52.142;11.618;2022-11-18T03:06:47;8.50;56.90
2749;DHT22;1382;52.142;11.618;2022-11-18T03:09:21;8.50;56.90
2749;DHT22;1382;52.142;11.618;2022-11-18T03:11:55;8.50;56.80
2749;DHT22;1382;52.142;11.618;2022-11-18T03:14:32;8.50;56.70
2749;DHT22;1382;52.142;11.618;2022-11-18T03:17:03;8.40;56.80
2749;DHT22;1382;52.142;11.618;2022-11-18T03:19:48;8.40;56.90
2749;DHT22;1382;52.142;11.618;2022-11-18T03:22:22;8.40;56.90
2749;DHT22;1382;52.142;11.618;2022-11-18T03:24:57;8.40;57.00
2749;DHT22;1382;52.142;11.618;2022-11-18T03:27:29;8.40;57.00
2749;DHT22;1382;52.142;11.618;2022-11-18T03:30:01;8.40;57.00
2749;DHT22;1382;52.142;11.618;2022-11-18T03:32:32;8.30;56.80
2749;DHT22;1382;52.142;11.618;2022-11-18T03:35:05;8.40;57.00
2749;DHT22;1382;52.142;11.618;2022-11-18T03:37:34;8.30;56.90
2749;DHT22;1382;52.142;11.618;2022-11-18T03:40:05;8.30;57.00
2749;DHT22;1382;52.142;11.618;2022-11-18T03:42:36;8.30;56.90
2749;DHT22;1382;52.142;11.618;2022-11-18T03:45:10;8.30;57.00
2749;DHT22;1382;52.142;11.618;2022-11-18T03:47:40;8.20;56.90
2749;DHT22;1382;52.142;11.618;2022-11-18T03:50:14;8.30;57.00
2749;DHT22;1382;52.142;11.618;2022-11-18T03:52:42;8.30;57.00
2749;DHT22;1382;52.142;11.618;2022-11-18T03:55:12;8.30;57.00
2749;DHT22;1382;52.142;11.618;2022-11-18T03:57:45;8.30;56.90
2749;DHT22;1382;52.142;11.618;2022-11-18T04:00:16;8.30;56.80
2749;DHT22;1382;52.142;11.618;2022-11-18T04:02:44;8.30;56.60
2749;DHT22;1382;52.142;11.618;2022-11-18T04:05:13;8.30;56.70
2749;DHT22;1382;52.142;11.618;2022-11-18T04:07:49;8.40;56.80
2749;DHT22;1382;52.142;11.618;2022-11-18T04:10:19;8.30;56.60
2749;DHT22;1382;52.142;11.618;2022-11-18T04:12:49;8.30;56.60
2749;DHT22;1382;52.142;11.618;2022-11-18T04:15:20;8.30;56.60
2749;DHT22;1382;52.142;11.618;2022-11-18T04:17:47;8.30;56.60
2749;DHT22;1382;52.142;11.618;2022-11-18T04:20:17;8.30;56.60
2749;DHT22;1382;52.142;11.618;2022-11-18T04:22:44;8.20;56.50
2749;DHT22;1382;52.142;11.618;2022-11-18T04:25:11;8.20;56.60
2749;DHT22;1382;52.142;11.618;2022-11-18T04:27:37;8.20;56.60
2749;DHT22;1382;52.142;11.618;2022-11-18T04:30:05;8.20;56.60
2749;DHT22;1382;52.142;11.618;2022-11-18T04:32:34;8.10;56.60
2749;DHT22;1382;52.142;11.618;2022-11-18T04:35:00;8.10;56.70
2749;DHT22;1382;52.142;11.618;2022-11-18T04:37:27;8.10;56.70
2749;DHT22;1382;52.142;11.618;2022-11-18T04:39:54;8.10;56.50
2749;DHT22;1382;52.142;11.618;2022-11-18T04:42:21;8.20;56.70
2749;DHT22;1382;52.142;11.618;2022-11-18T04:44:48;8.00;56.70
2749;DHT22;1382;52.142;11.618;2022-11-18T04:47:14;8.00;56.80
2749;DHT22;1382;52.142;11.618;2022-11-18T04:49:42;7.90;56.90
2749;DHT22;1382;52.142;11.618;2022-11-18T04:52:09;7.90;56.90
2749;DHT22;1382;52.142;11.618;2022-11-18T04:54:36;7.90;56.90
2749;DHT22;1382;52.142;11.618;2022-11-18T04:57:03;7.90;57.00
2749;DHT22;1382;52.142;11.618;2022-11-18T04:59:30;7.90;57.00
2749;DHT22;1382;52.142;11.618;2022-11-18T05:01:57;7.90;57.00
2749;DHT22;1382;52.142;11.618;2022-11-18T05:04:25;7.80;56.70
2749;DHT22;1382;52.142;11.618;2022-11-18T05:06:53;7.90;56.90
2749;DHT22;1382;52.142;11.618;2022-11-18T05:09:21;7.90;56.90
2749;DHT22;1382;52.142;11.618;2022-11-18T05:11:54;7.90;56.90
2749;DHT22;1382;52.142;11.618;2022-11-18T05:14:21;7.80;56.80
2749;DHT22;1382;52.142;11.618;2022-11-18T05:16:47;7.80;56.80
2749;DHT22;1382;52.142;11.618;2022-11-18T05:19:14;7.80;56.90
2749;DHT22;1382;52.142;11.618;2022-11-18T05:21:42;7.80;56.90
2749;DHT22;1382;52.142;11.618;2022-11-18T05:24:10;7.80;56.90
2749;DHT22;1382;52.142;11.618;2022-11-18T05:26:36;7.80;56.80
2749;DHT22;1382;52.142;11.618;2022-11-18T05:29:03;7.80;56.80
2749;DHT22;1382;52.142;11.618;2022-11-18T05:31:30;7.70;56.70
2749;DHT22;1382;52.142;11.618;2022-11-18T05:33:57;7.70;56.70
2749;DHT22;1382;52.142;11.618;2022-11-18T05:36:24;7.70;56.70
2749;DHT22;1382;52.142;11.618;2022-11-18T05:38:51;7.70;56.70
2749;DHT22;1382;52.142;11.618;2022-11-18T05:41:19;7.70;56.70
2749;DHT22;1382;52.142;11.618;2022-11-18T05:43:46;7.70;56.70
2749;DHT22;1382;52.142;11.618;2022-11-18T05:46:13;7.60;56.80
2749;DHT22;1382;52.142;11.618;2022-11-18T05:48:40;7.60;56.70
2749;DHT22;1382;52.142;11.618;2022-11-18T05:51:06;7.60;56.70
2749;DHT22;1382;52.142;11.618;2022-11-18T05:53:33;7.60;56.80
2749;DHT22;1382;52.142;11.618;2022-11-18T05:56:03;7.60;56.80
2749;DHT22;1382;52.142;11.618;2022-11-18T05:58:34;7.70;56.80
2749;DHT22;1382;52.142;11.618;2022-11-18T06:01:02;7.60;56.80
2749;DHT22;1382;52.142;11.618;2022-11-18T06:03:31;7.50;56.90
2749;DHT22;1382;52.142;11.618;2022-11-18T06:06:01;7.50;56.70
2749;DHT22;1382;52.142;11.618;2022-11-18T06:08:33;7.60;56.80
2749;DHT22;1382;52.142;11.618;2022-11-18T06:11:01;7.50;56.60
2749;DHT22;1382;52.142;11.618;2022-11-18T06:13:32;7.50;56.70
2749;DHT22;1382;52.142;11.618;2022-11-18T06:16:02;7.40;56.70
2749;DHT22;1382;52.142;11.618;2022-11-18T06:18:30;7.40;56.70
2749;DHT22;1382;52.142;11.618;2022-11-18T06:21:00;7.40;57.30
2749;DHT22;1382;52.142;11.618;2022-11-18T06:23:31;7.40;56.60
2749;DHT22;1382;52.142;11.618;2022-11-18T06:25:59;7.40;56.70
2749;DHT22;1382;52.142;11.618;2022-11-18T06:28:27;7.40;56.60
2749;DHT22;1382;52.142;11.618;2022-11-18T06:30:55;7.40;56.60
2749;DHT22;1382;52.142;11.618;2022-11-18T06:33:23;7.40;56.60
2749;DHT22;1382;52.142;11.618;2022-11-18T06:35:49;7.40;56.60
2749;DHT22;1382;52.142;11.618;2022-11-18T06:38:16;7.40;56.50
2749;DHT22;1382;52.142;11.618;2022-11-18T06:40:43;7.30;56.40
2749;DHT22;1382;52.142;11.618;2022-11-18T06:43:10;7.30;56.50
2749;DHT22;1382;52.142;11.618;2022-11-18T06:45:37;7.30;56.50
2749;DHT22;1382;52.142;11.618;2022-11-18T06:48:05;7.20;56.50
2749;DHT22;1382;52.142;11.618;2022-11-18T06:50:33;7.20;56.50
2749;DHT22;1382;52.142;11.618;2022-11-18T06:52:59;7.20;56.60
2749;DHT22;1382;52.142;11.618;2022-11-18T06:55:26;7.20;56.60
2749;DHT22;1382;52.142;11.618;2022-11-18T06:57:55;7.20;56.60
2749;DHT22;1382;52.142;11.618;2022-11-18T07:00:21;7.20;56.50
2749;DHT22;1382;52.142;11.618;2022-11-18T07:02:48;7.20;56.50
2749;DHT22;1382;52.142;11.618;2022-11-18T07:05:15;7.10;56.40
2749;DHT22;1382;52.142;11.618;2022-11-18T07:07:43;7.10;56.40
2749;DHT22;1382;52.142;11.618;2022-11-18T07:10:10;7.10;56.40
2749;DHT22;1382;52.142;11.618;2022-11-18T07:12:37;7.10;56.40
2749;DHT22;1382;52.142;11.618;2022-11-18T07:15:04;7.20;56.30
2749;DHT22;1382;52.142;11.618;2022-11-18T07:17:31;7.20;56.20
2749;DHT22;1382;52.142;11.618;2022-11-18T07:19:58;7.10;56.20
2749;DHT22;1382;52.142;11.618;2022-11-18T07:22:24;7.10;56.20
2749;DHT22;1382;52.142;11.618;2022-11-18T07:24:53;7.10;56.30
2749;DHT22;1382;52.142;11.618;2022-11-18T07:27:19;7.10;56.20
2749;DHT22;1382;52.142;11.618;2022-11-18T07:29:46;7.10;56.20
2749;DHT22;1382;52.142;11.618;2022-11-18T07:32:13;7.10;56.80
2749;DHT22;1382;52.142;11.618;2022-11-18T07:34:39;7.10;56.20
2749;DHT22;1382;52.142;11.618;2022-11-18T07:37:06;7.10;56.10
2749;DHT22;1382;52.142;11.618;2022-11-18T07:39:33;7.00;56.10
2749;DHT22;1382;52.142;11.618;2022-11-18T07:42:01;7.00;56.20
2749;DHT22;1382;52.142;11.618;2022-11-18T07:44:28;7.20;56.40
2749;DHT22;1382;52.142;11.618;2022-11-18T07:46:55;6.90;56.20
2749;DHT22;1382;52.142;11.618;2022-11-18T07:49:21;6.90;56.20
2749;DHT22;1382;52.142;11.618;2022-11-18T07:51:48;6.90;56.20
2749;DHT22;1382;52.142;11.618;2022-11-18T07:54:15;6.90;56.10
2749;DHT22;1382;52.142;11.618;2022-11-18T07:56:42;7.10;56.30
2749;DHT22;1382;52.142;11.618;2022-11-18T07:59:10;6.90;56.10
2749;DHT22;1382;52.142;11.618;2022-11-18T08:01:37;6.90;56.00
2749;DHT22;1382;52.142;11.618;2022-11-18T08:04:05;6.80;56.00
2749;DHT22;1382;52.142;11.618;2022-11-18T08:06:32;6.80;56.10
2749;DHT22;1382;52.142;11.618;2022-11-18T08:09:00;6.80;56.00
2749;DHT22;1382;52.142;11.618;2022-11-18T08:11:26;6.80;56.10
2749;DHT22;1382;52.142;11.618;2022-11-18T08:13:53;6.70;55.90
2749;DHT22;1382;52.142;11.618;2022-11-18T08:16:23;6.70;56.00
2749;DHT22;1382;52.142;11.618;2022-11-18T08:18:51;6.70;55.90
2749;DHT22;1382;52.142;11.618;2022-11-18T08:21:20;6.70;55.90
2749;DHT22;1382;52.142;11.618;2022-11-18T08:23:49;6.70;55.90
2749;DHT22;1382;52.142;11.618;2022-11-18T08:26:16;6.70;55.80
2749;DHT22;1382;52.142;11.618;2022-11-18T08:28:43;6.70;55.80
2749;DHT22;1382;52.142;11.618;2022-11-18T08:31:17;6.70;55.80
2749;DHT22;1382;52.142;11.618;2022-11-18T08:33:45;6.70;55.70
2749;DHT22;1382;52.142;11.618;2022-11-18T08:36:15;6.70;55.70
2749;DHT22;1382;52.142;11.618;2022-11-18T08:38:42;6.70;55.70
2749;DHT22;1382;52.142;11.618;2022-11-18T08:41:11;6.70;55.70
2749;DHT22;1382;52.142;11.618;2022-11-18T08:43:38;6.60;55.60
2749;DHT22;1382;52.142;11.618;2022-11-18T08:46:04;6.60;55.80
2749;DHT22;1382;52.142;11.618;2022-11-18T08:48:31;6.70;55.90
2749;DHT22;1382;52.142;11.618;2022-11-18T08:51:00;6.60;55.80
2749;DHT22;1382;52.142;11.618;2022-11-18T08:53:27;6.60;55.80
2749;DHT22;1382;52.142;11.618;2022-11-18T08:55:55;6.60;55.70
2749;DHT22;1382;52.142;11.618;2022-11-18T08:58:23;6.60;55.70
2749;DHT22;1382;52.142;11.618;2022-11-18T09:00:50;6.60;55.70
2749;DHT22;1382;52.142;11.618;2022-11-18T09:03:16;6.50;55.60
2749;DHT22;1382;52.142;11.618;2022-11-18T09:05:43;6.50;55.80
2749;DHT22;1382;52.142;11.618;2022-11-18T09:08:11;6.50;55.70
2749;DHT22;1382;52.142;11.618;2022-11-18T09:10:38;6.50;55.70
2749;DHT22;1382;52.142;11.618;2022-11-18T09:13:05;6.40;55.60
2749;DHT22;1382;52.142;11.618;2022-11-18T09:15:52;6.40;55.80
2749;DHT22;1382;52.142;11.618;2022-11-18T09:18:18;6.40;55.80
2749;DHT22;1382;52.142;11.618;2022-11-18T09:20:53;6.40;55.90
2749;DHT22;1382;52.142;11.618;2022-11-18T09:23:21;6.40;55.90
2749;DHT22;1382;52.142;11.618;2022-11-18T09:25:55;6.40;55.90
2749;DHT22;1382;52.142;11.618;2022-11-18T09:28:22;6.60;55.90
2749;DHT22;1382;52.142;11.618;2022-11-18T09:30:49;6.40;55.80
2749;DHT22;1382;52.142;11.618;2022-11-18T09:33:15;6.40;55.80
2749;DHT22;1382;52.142;11.618;2022-11-18T09:35:46;6.40;55.80
2749;DHT22;1382;52.142;11.618;2022-11-18T09:38:13;6.40;55.80
2749;DHT22;1382;52.142;11.618;2022-11-18T09:40:47;6.40;55.60
2749;DHT22;1382;52.142;11.618;2022-11-18T09:43:21;6.40;55.60
2749;DHT22;1382;52.142;11.618;2022-11-18T09:45:52;6.40;55.70
2749;DHT22;1382;52.142;11.618;2022-11-18T09:48:21;6.30;55.60
2749;DHT22;1382;52.142;11.618;2022-11-18T09:50:48;6.30;55.70
2749;DHT22;1382;52.142;11.618;2022-11-18T09:53:19;6.30;55.70
2749;DHT22;1382;52.142;11.618;2022-11-18T09:55:48;6.30;55.60
2749;DHT22;1382;52.142;11.618;2022-11-18T09:58:19;6.30;55.60
2749;DHT22;1382;52.142;11.618;2022-11-18T10:00:46;6.40;55.60
2749;DHT22;1382;52.142;11.618;2022-11-18T10:03:17;6.50;55.70
2749;DHT22;1382;52.142;11.618;2022-11-18T10:05:51;6.50;55.70
2749;DHT22;1382;52.142;11.618;2022-11-18T10:08:22;6.30;55.50
2749;DHT22;1382;52.142;11.618;2022-11-18T10:10:57;6.40;56.10
2749;DHT22;1382;52.142;11.618;2022-11-18T10:13:43;6.30;55.40
2749;DHT22;1382;52.142;11.618;2022-11-18T10:16:22;6.50;55.40
2749;DHT22;1382;52.142;11.618;2022-11-18T10:18:54;6.40;55.50
2749;DHT22;1382;52.142;11.618;2022-11-18T10:21:36;6.40;55.50
2749;DHT22;1382;52.142;11.618;2022-11-18T10:24:11;6.30;55.30
2749;DHT22;1382;52.142;11.618;2022-11-18T10:26:40;6.20;55.30
2749;DHT22;1382;52.142;11.618;2022-11-18T10:29:08;6.20;55.30
2749;DHT22;1382;52.142;11.618;2022-11-18T10:31:36;6.30;55.40
2749;DHT22;1382;52.142;11.618;2022-11-18T10:34:03;6.40;55.40
2749;DHT22;1382;52.142;11.618;2022-11-18T10:36:31;6.20;55.20
2749;DHT22;1382;52.142;11.618;2022-11-18T10:39:06;6.20;55.10
2749;DHT22;1382;52.142;11.618;2022-11-18T10:41:40;6.30;55.20
2749;DHT22;1382;52.142;11.618;2022-11-18T10:44:35;6.30;55.80
2749;DHT22;1382;52.142;11.618;2022-11-18T10:47:21;6.30;55.10
2749;DHT22;1382;52.142;11.618;2022-11-18T10:49:48;6.30;55.10
2749;DHT22;1382;52.142;11.618;2022-11-18T10:52:15;6.30;55.10
2749;DHT22;1382;52.142;11.618;2022-11-18T10:54:42;6.50;55.30
2749;DHT22;1382;52.142;11.618;2022-11-18T10:57:18;6.30;55.10
2749;DHT22;1382;52.142;11.618;2022-11-18T10:59:47;6.30;55.10
2749;DHT22;1382;52.142;11.618;2022-11-18T11:02:17;6.30;55.10
2749;DHT22;1382;52.142;11.618;2022-11-18T11:04:45;6.30;55.10
2749;DHT22;1382;52.142;11.618;2022-11-18T11:07:23;6.30;55.00
2749;DHT22;1382;52.142;11.618;2022-11-18T11:10:12;6.30;55.00
2749;DHT22;1382;52.142;11.618;2022-11-18T11:12:48;6.30;55.00
2749;DHT22;1382;52.142;11.618;2022-11-18T11:15:20;6.30;55.00
2749;DHT22;1382;52.142;11.618;2022-11-18T11:17:51;6.30;55.00
2749;DHT22;1382;52.142;11.618;2022-11-18T11:20:22;6.40;55.00
2749;DHT22;1382;52.142;11.618;2022-11-18T11:22:49;6.20;54.80
2749;DHT22;1382;52.142;11.618;2022-11-18T11:25:18;6.20;54.90
2749;DHT22;1382;52.142;11.618;2022-11-18T11:27:53;6.20;54.90
2749;DHT22;1382;52.142;11.618;2022-11-18T11:30:46;6.20;54.90
2749;DHT22;1382;52.142;11.618;2022-11-18T11:33:30;6.10;54.90
2749;DHT22;1382;52.142;11.618;2022-11-18T11:36:25;6.10;54.90
2749;DHT22;1382;52.142;11.618;2022-11-18T11:39:06;6.10;54.90
2749;DHT22;1382;52.142;11.618;2022-11-18T11:41:46;6.10;55.00
2749;DHT22;1382;52.142;11.618;2022-11-18T11:44:31;6.10;55.00
2749;DHT22;1382;52.142;11.618;2022-11-18T11:47:10;6.10;54.80
2749;DHT22;1382;52.142;11.618;2022-11-18T11:49:51;6.10;54.90
2749;DHT22;1382;52.142;11.618;2022-11-18T11:52:30;6.10;54.90
2749;DHT22;1382;52.142;11.618;2022-11-18T11:55:06;6.30;55.10
2749;DHT22;1382;52.142;11.618;2022-11-18T11:57:47;6.10;55.00
2749;DHT22;1382;52.142;11.618;2022-11-18T12:00:19;6.00;54.80
2749;DHT22;1382;52.142;11.618;2022-11-18T12:03:01;6.00;54.80
2749;DHT22;1382;52.142;11.618;2022-11-18T12:05:33;6.10;54.80
2749;DHT22;1382;52.142;11.618;2022-11-18T12:08:03;6.00;54.70
2749;DHT22;1382;52.142;11.618;2022-11-18T12:10:43;6.00;54.80
2749;DHT22;1382;52.142;11.618;2022-11-18T12:13:19;6.00;54.70
2749;DHT22;1382;52.142;11.618;2022-11-18T12:15:57;6.00;54.80
2749;DHT22;1382;52.142;11.618;2022-11-18T12:18:29;6.00;54.70
2749;DHT22;1382;52.142;11.618;2022-11-18T12:20:58;6.10;54.80
2749;DHT22;1382;52.142;11.618;2022-11-18T12:23:26;6.00;54.70
2749;DHT22;1382;52.142;11.618;2022-11-18T12:25:56;6.00;54.80
2749;DHT22;1382;52.142;11.618;2022-11-18T12:28:30;6.10;54.80
2749;DHT22;1382;52.142;11.618;2022-11-18T12:31:32;6.00;54.50
2749;DHT22;1382;52.142;11.618;2022-11-18T12:34:17;6.00;55.10
2749;DHT22;1382;52.142;11.618;2022-11-18T12:36:45;5.90;54.40
2749;DHT22;1382;52.142;11.618;2022-11-18T12:42:39;5.90;54.50
2749;DHT22;1382;52.142;11.618;2022-11-18T12:48:32;5.90;54.50
2749;DHT22;1382;52.142;11.618;2022-11-18T12:53:52;5.90;54.50
2749;DHT22;1382;52.142;11.618;2022-11-18T12:56:21;5.90;54.60
2749;DHT22;1382;52.142;11.618;2022-11-18T12:58:50;5.90;54.40
2749;DHT22;1382;52.142;11.618;2022-11-18T13:01:18;6.10;54.40
2749;DHT22;1382;52.142;11.618;2022-11-18T13:03:47;5.90;54.20
2749;DHT22;1382;52.142;11.618;2022-11-18T13:06:21;5.90;54.30
2749;DHT22;1382;52.142;11.618;2022-11-18T13:08:54;5.90;54.30
2749;DHT22;1382;52.142;11.618;2022-11-18T13:11:24;5.80;54.30
2749;DHT22;1382;52.142;11.618;2022-11-18T13:13:52;5.80;54.20
2749;DHT22;1382;52.142;11.618;2022-11-18T13:16:21;5.90;54.30
2749;DHT22;1382;52.142;11.618;2022-11-18T13:18:52;5.80;54.10
2749;DHT22;1382;52.142;11.618;2022-11-18T13:21:21;5.80;54.10
2749;DHT22;1382;52.142;11.618;2022-11-18T13:23:48;5.80;54.10
2749;DHT22;1382;52.142;11.618;2022-11-18T13:26:18;5.80;54.10
2749;DHT22;1382;52.142;11.618;2022-11-18T13:29:07;5.70;54.00
2749;DHT22;1382;52.142;11.618;2022-11-18T13:31:46;5.90;54.20
2749;DHT22;1382;52.142;11.618;2022-11-18T13:34:18;5.70;54.00
2749;DHT22;1382;52.142;11.618;2022-11-18T13:36:47;5.70;54.00
2749;DHT22;1382;52.142;11.618;2022-11-18T13:39:19;5.70;54.00
2749;DHT22;1382;52.142;11.618;2022-11-18T13:41:57;5.60;53.80
2749;DHT22;1382;52.142;11.618;2022-11-18T13:44:25;5.60;53.80
2749;DHT22;1382;52.142;11.618;2022-11-18T13:46:55;5.50;53.80
2749;DHT22;1382;52.142;11.618;2022-11-18T13:49:31;5.60;54.00
2749;DHT22;1382;52.142;11.618;2022-11-18T13:52:01;5.60;53.90
2749;DHT22;1382;52.142;11.618;2022-11-18T13:54:29;5.60;53.90
2749;DHT22;1382;52.142;11.618;2022-11-18T13:56:55;5.60;53.90
2749;DHT22;1382;52.142;11.618;2022-11-18T13:59:23;5.60;53.80
2749;DHT22;1382;52.142;11.618;2022-11-18T14:01:53;5.60;53.90
2749;DHT22;1382;52.142;11.618;2022-11-18T14:04:22;5.60;53.80
2749;DHT22;1382;52.142;11.618;2022-11-18T14:06:51;5.50;53.70
2749;DHT22;1382;52.142;11.618;2022-11-18T14:09:21;5.50;53.70
2749;DHT22;1382;52.142;11.618;2022-11-18T14:12:01;5.70;53.80
2749;DHT22;1382;52.142;11.618;2022-11-18T14:14:31;5.50;53.60
2749;DHT22;1382;52.142;11.618;2022-11-18T14:17:14;5.50;53.60
2749;DHT22;1382;52.142;11.618;2022-11-18T14:19:42;5.50;53.60
2749;DHT22;1382;52.142;11.618;2022-11-18T14:22:14;5.40;53.60
2749;DHT22;1382;52.142;11.618;2022-11-18T14:24:41;5.40;53.50
2749;DHT22;1382;52.142;11.618;2022-11-18T14:27:34;5.40;53.60
2749;DHT22;1382;52.142;11.618;2022-11-18T14:33:06;5.30;53.50
2749;DHT22;1382;52.142;11.618;2022-11-18T14:35:34;5.50;53.60
2749;DHT22;1382;52.142;11.618;2022-11-18T14:38:10;5.30;53.50
2749;DHT22;1382;52.142;11.618;2022-11-18T14:40:59;5.40;53.50
2749;DHT22;1382;52.142;11.618;2022-11-18T14:43:26;5.30;53.40
2749;DHT22;1382;52.142;11.618;2022-11-18T14:45:56;5.30;53.40
2749;DHT22;1382;52.142;11.618;2022-11-18T14:48:24;5.30;54.00
2749;DHT22;1382;52.142;11.618;2022-11-18T14:50:58;5.30;53.40
2749;DHT22;1382;52.142;11.618;2022-11-18T14:53:26;5.30;53.40
2749;DHT22;1382;52.142;11.618;2022-11-18T14:55:56;5.30;53.30
2749;DHT22;1382;52.142;11.618;2022-11-18T14:58:24;5.40;53.40
2749;DHT22;1382;52.142;11.618;2022-11-18T15:00:51;5.30;53.30
2749;DHT22;1382;52.142;11.618;2022-11-18T15:03:17;5.20;53.30
2749;DHT22;1382;52.142;11.618;2022-11-18T15:05:44;5.30;53.40
2749;DHT22;1382;52.142;11.618;2022-11-18T15:08:11;5.30;53.20
2749;DHT22;1382;52.142;11.618;2022-11-18T15:10:39;5.30;53.30
2749;DHT22;1382;52.142;11.618;2022-11-18T15:13:06;5.30;53.30
2749;DHT22;1382;52.142;11.618;2022-11-18T15:15:33;5.20;53.10
2749;DHT22;1382;52.142;11.618;2022-11-18T15:18:00;5.30;53.20
2749;DHT22;1382;52.142;11.618;2022-11-18T15:20:26;5.20;53.10
2749;DHT22;1382;52.142;11.618;2022-11-18T15:22:53;5.30;53.20
2749;DHT22;1382;52.142;11.618;2022-11-18T15:25:20;5.30;53.20
2749;DHT22;1382;52.142;11.618;2022-11-18T15:27:48;5.20;53.00
2749;DHT22;1382;52.142;11.618;2022-11-18T15:30:15;5.20;53.00
2749;DHT22;1382;52.142;11.618;2022-11-18T15:32:42;5.30;53.00
2749;DHT22;1382;52.142;11.618;2022-11-18T15:35:11;5.30;53.00
2749;DHT22;1382;52.142;11.618;2022-11-18T15:37:37;5.30;53.00
2749;DHT22;1382;52.142;11.618;2022-11-18T15:40:05;5.30;52.90
2749;DHT22;1382;52.142;11.618;2022-11-18T15:42:32;5.20;52.80
2749;DHT22;1382;52.142;11.618;2022-11-18T15:45:09;5.20;52.80
2749;DHT22;1382;52.142;11.618;2022-11-18T15:47:36;5.20;52.80
2749;DHT22;1382;52.142;11.618;2022-11-18T15:50:03;5.20;52.70
2749;DHT22;1382;52.142;11.618;2022-11-18T15:52:30;5.20;52.80
2749;DHT22;1382;52.142;11.618;2022-11-18T15:54:57;5.10;51.60
2749;DHT22;1382;52.142;11.618;2022-11-18T15:57:23;5.00;52.00
2749;DHT22;1382;52.142;11.618;2022-11-18T15:59:50;4.90;51.80
2749;DHT22;1382;52.142;11.618;2022-11-18T16:02:18;4.80;52.00
2749;DHT22;1382;52.142;11.618;2022-11-18T16:04:45;4.80;52.00
2749;DHT22;1382;52.142;11.618;2022-11-18T16:07:12;4.70;52.00
2749;DHT22;1382;52.142;11.618;2022-11-18T16:09:39;4.70;52.10
2749;DHT22;1382;52.142;11.618;2022-11-18T16:12:07;4.60;52.30
2749;DHT22;1382;52.142;11.618;2022-11-18T16:14:35;4.70;52.70
2749;DHT22;1382;52.142;11.618;2022-11-18T16:17:02;4.70;52.60
2749;DHT22;1382;52.142;11.618;2022-11-18T16:19:30;4.70;52.60
2749;DHT22;1382;52.142;11.618;2022-11-18T16:21:57;4.80;52.50
2749;DHT22;1382;52.142;11.618;2022-11-18T16:24:25;4.80;52.50
2749;DHT22;1382;52.142;11.618;2022-11-18T16:26:52;4.90;52.50
2749;DHT22;1382;52.142;11.618;2022-11-18T16:29:19;4.90;53.80
2749;DHT22;1382;52.142;11.618;2022-11-18T16:31:48;4.90;53.20
2749;DHT22;1382;52.142;11.618;2022-11-18T16:34:17;4.90;52.90